createdAt,value
2017-12-29T00:00:05.796Z,89.34
2017-12-29T00:00:31.894Z,89.91
2017-12-29T00:00:57.997Z,89.72
2017-12-29T00:01:24.095Z,89.62
2017-12-29T00:01:50.203Z,89.43
2017-12-29T00:02:16.304Z,89.53
2017-12-29T00:02:42.400Z,90
2017-12-29T00:03:08.503Z,89.81
2017-12-29T00:03:34.604Z,89.43
2017-12-29T00:04:00.705Z,89.53
2017-12-29T00:04:26.803Z,89.62
2017-12-29T00:04:52.904Z,89.15
2017-12-29T00:05:18.999Z,88.96
2017-12-29T00:05:45.099Z,89.34
2017-12-29T00:06:11.222Z,89.34
2017-12-29T00:06:37.319Z,89.06
2017-12-29T00:07:03.420Z,89.06
2017-12-29T00:07:29.531Z,89.15
2017-12-29T00:07:55.621Z,89.15
2017-12-29T00:08:21.741Z,89.15
2017-12-29T00:08:47.841Z,89.62
2017-12-29T00:09:13.959Z,89.53
2017-12-29T00:09:40.065Z,89.81
2017-12-29T00:10:06.166Z,90
2017-12-29T00:10:32.264Z,89.62
2017-12-29T00:10:58.361Z,89.34
2017-12-29T00:11:24.465Z,89.06
2017-12-29T00:11:50.565Z,89.15
2017-12-29T00:12:16.681Z,89.34
2017-12-29T00:12:42.785Z,89.34
2017-12-29T00:13:08.882Z,89.06
2017-12-29T00:13:34.989Z,89.15
2017-12-29T00:14:01.104Z,89.15
2017-12-29T00:14:27.203Z,89.06
2017-12-29T00:14:53.303Z,89.15
2017-12-29T00:15:19.403Z,89.15
2017-12-29T00:15:45.507Z,89.06
2017-12-29T00:16:11.610Z,89.34
2017-12-29T00:16:37.726Z,88.96
2017-12-29T00:17:03.818Z,89.25
2017-12-29T00:17:29.914Z,89.34
2017-12-29T00:17:56.020Z,89.25
2017-12-29T00:18:22.121Z,89.25
2017-12-29T00:18:48.220Z,89.15
2017-12-29T00:19:14.331Z,89.25
2017-12-29T00:19:40.424Z,89.06
2017-12-29T00:20:06.544Z,88.96
2017-12-29T00:20:32.651Z,89.15
2017-12-29T00:20:58.749Z,89.06
2017-12-29T00:21:24.852Z,89.06
2017-12-29T00:21:50.951Z,89.34
2017-12-29T00:22:17.052Z,89.25
2017-12-29T00:22:43.146Z,89.15
2017-12-29T00:23:09.245Z,89.15
2017-12-29T00:23:35.347Z,88.96
2017-12-29T00:24:01.450Z,88.96
2017-12-29T00:24:27.551Z,88.68
2017-12-29T00:24:53.674Z,88.68
2017-12-29T00:25:19.776Z,88.39
2017-12-29T00:25:45.874Z,88.48
2017-12-29T00:26:11.971Z,88.29
2017-12-29T00:26:38.080Z,87.82
2017-12-29T00:27:04.189Z,88.29
2017-12-29T00:27:30.295Z,88.39
2017-12-29T00:27:56.391Z,88.48
2017-12-29T00:28:22.492Z,88.77
2017-12-29T00:28:48.595Z,88.87
2017-12-29T00:29:14.700Z,88.96
2017-12-29T00:29:40.796Z,88.96
2017-12-29T00:30:06.897Z,88.87
2017-12-29T00:30:33.015Z,88.2
2017-12-29T00:30:59.112Z,88.68
2017-12-29T00:31:25.217Z,88.68
2017-12-29T00:31:51.315Z,88.77
2017-12-29T00:32:17.418Z,88.77
2017-12-29T00:32:43.524Z,88.68
2017-12-29T00:33:09.622Z,88.58
2017-12-29T00:33:35.719Z,88.96
2017-12-29T00:34:01.822Z,88.87
2017-12-29T00:34:27.918Z,88.68
2017-12-29T00:34:54.022Z,88.77
2017-12-29T00:35:20.121Z,89.25
2017-12-29T00:35:46.226Z,88.77
2017-12-29T00:36:12.324Z,88.87
2017-12-29T00:36:38.430Z,89.15
2017-12-29T00:37:04.527Z,88.87
2017-12-29T00:37:30.631Z,88.68
2017-12-29T00:37:56.754Z,89.25
2017-12-29T00:38:22.854Z,89.25
2017-12-29T00:38:48.951Z,88.58
2017-12-29T00:39:15.060Z,88.68
2017-12-29T00:39:41.161Z,88.77
2017-12-29T00:40:07.259Z,88.96
2017-12-29T00:40:33.362Z,89.34
2017-12-29T00:40:59.461Z,89.62
2017-12-29T00:41:25.585Z,89.25
2017-12-29T00:41:51.697Z,89.25
2017-12-29T00:42:17.789Z,89.15
2017-12-29T00:42:43.890Z,89.06
2017-12-29T00:43:09.994Z,89.72
2017-12-29T00:43:36.098Z,89.43
2017-12-29T00:44:02.193Z,89.15
2017-12-29T00:44:28.298Z,89.25
2017-12-29T00:44:54.400Z,89.25
2017-12-29T00:45:20.498Z,89.43
2017-12-29T00:45:46.601Z,89.62
2017-12-29T00:46:12.697Z,89.72
2017-12-29T00:46:38.801Z,89.43
2017-12-29T00:47:04.900Z,89.34
2017-12-29T00:47:30.994Z,89.62
2017-12-29T00:47:57.094Z,89.34
2017-12-29T00:48:23.208Z,89.34
2017-12-29T00:48:49.311Z,89.25
2017-12-29T00:49:15.409Z,89.06
2017-12-29T00:49:41.512Z,89.15
2017-12-29T00:50:07.611Z,89.15
2017-12-29T00:50:33.730Z,89.53
2017-12-29T00:50:59.834Z,89.25
2017-12-29T00:51:25.933Z,89.43
2017-12-29T00:51:52.036Z,89.72
2017-12-29T00:52:18.131Z,89.53
2017-12-29T00:52:44.237Z,89.72
2017-12-29T00:53:10.334Z,89.34
2017-12-29T00:53:36.430Z,89.34
2017-12-29T00:54:02.535Z,88.87
2017-12-29T00:54:28.633Z,88.96
2017-12-29T00:54:54.736Z,89.25
2017-12-29T00:55:20.837Z,89.25
2017-12-29T00:55:46.932Z,88.77
2017-12-29T00:56:13.030Z,88.58
2017-12-29T00:56:39.135Z,88.58
2017-12-29T00:57:05.234Z,88.87
2017-12-29T00:57:31.330Z,88.68
2017-12-29T00:57:57.435Z,88.48
2017-12-29T00:58:23.530Z,88.87
2017-12-29T00:58:49.634Z,88.96
2017-12-29T00:59:15.735Z,88.77
2017-12-29T00:59:41.829Z,88.2
2017-12-29T01:00:07.936Z,88.58
2017-12-29T01:00:34.032Z,88.68
2017-12-29T01:01:00.136Z,88.96
2017-12-29T01:01:26.230Z,88.77
2017-12-29T01:01:52.336Z,88.58
2017-12-29T01:02:18.439Z,88.96
2017-12-29T01:02:44.540Z,89.06
2017-12-29T01:03:10.641Z,89.15
2017-12-29T01:03:36.739Z,89.15
2017-12-29T01:04:02.840Z,89.34
2017-12-29T01:04:28.938Z,88.87
2017-12-29T01:04:55.038Z,89.25
2017-12-29T01:05:21.144Z,89.62
2017-12-29T01:05:47.240Z,89.48
2017-12-29T01:06:13.341Z,89.81
2017-12-29T01:06:39.442Z,89.72
2017-12-29T01:07:05.545Z,89.62
2017-12-29T01:07:31.638Z,89.15
2017-12-29T01:07:57.743Z,89.34
2017-12-29T01:08:23.841Z,89.15
2017-12-29T01:08:49.939Z,89.34
2017-12-29T01:09:16.043Z,89.15
2017-12-29T01:09:42.145Z,89.43
2017-12-29T01:10:08.248Z,89.39
2017-12-29T01:10:34.347Z,90.19
2017-12-29T01:11:00.449Z,89.86
2017-12-29T01:11:26.546Z,90.15
2017-12-29T01:11:52.649Z,90.43
2017-12-29T01:12:18.766Z,90.34
2017-12-29T01:12:44.871Z,90.43
2017-12-29T01:13:10.970Z,89.77
2017-12-29T01:13:37.067Z,90.62
2017-12-29T01:14:03.173Z,90.53
2017-12-29T01:14:29.271Z,90.62
2017-12-29T01:14:55.372Z,90.53
2017-12-29T01:15:21.467Z,90.53
2017-12-29T01:15:47.571Z,90.53
2017-12-29T01:16:13.671Z,90.72
2017-12-29T01:16:39.767Z,90.72
2017-12-29T01:17:05.872Z,90.43
2017-12-29T01:17:31.974Z,90.43
2017-12-29T01:17:58.083Z,90.34
2017-12-29T01:18:24.203Z,90.53
2017-12-29T01:18:50.298Z,89.77
2017-12-29T01:19:16.403Z,89.96
2017-12-29T01:19:42.504Z,90.62
2017-12-29T01:20:08.599Z,90.15
2017-12-29T01:20:34.717Z,90.24
2017-12-29T01:21:00.818Z,90.43
2017-12-29T01:21:26.917Z,90.43
2017-12-29T01:21:53.019Z,90.34
2017-12-29T01:22:19.121Z,90.24
2017-12-29T01:22:45.219Z,90.15
2017-12-29T01:23:11.323Z,90.43
2017-12-29T01:23:37.420Z,89.96
2017-12-29T01:24:03.532Z,90.15
2017-12-29T01:24:29.629Z,90.15
2017-12-29T01:24:55.725Z,89.86
2017-12-29T01:25:21.822Z,90.15
2017-12-29T01:25:47.927Z,90.24
2017-12-29T01:26:14.023Z,90.57
2017-12-29T01:26:40.130Z,90.34
2017-12-29T01:27:06.228Z,90.19
2017-12-29T01:27:32.326Z,90.19
2017-12-29T01:27:58.429Z,89.91
2017-12-29T01:28:24.535Z,89.96
2017-12-29T01:28:50.630Z,90.15
2017-12-29T01:29:16.732Z,90.05
2017-12-29T01:29:42.837Z,90.19
2017-12-29T01:30:08.931Z,90
2017-12-29T01:30:35.031Z,89.62
2017-12-29T01:31:01.138Z,89.81
2017-12-29T01:31:27.235Z,89.86
2017-12-29T01:31:53.341Z,89.86
2017-12-29T01:32:19.439Z,90.43
2017-12-29T01:32:45.535Z,90.05
2017-12-29T01:33:11.653Z,90.05
2017-12-29T01:33:37.752Z,90.19
2017-12-29T01:34:03.851Z,90.24
2017-12-29T01:34:29.952Z,90.24
2017-12-29T01:34:56.052Z,90.91
2017-12-29T01:35:22.154Z,90.72
2017-12-29T01:35:48.257Z,91.28
2017-12-29T01:36:14.357Z,91.28
2017-12-29T01:36:40.461Z,91
2017-12-29T01:37:06.556Z,90.81
2017-12-29T01:37:32.659Z,90.48
2017-12-29T01:37:58.752Z,90.19
2017-12-29T01:38:24.872Z,90.19
2017-12-29T01:38:50.958Z,90.34
2017-12-29T01:39:17.056Z,90.24
2017-12-29T01:39:43.161Z,90.53
2017-12-29T01:40:09.285Z,90.24
2017-12-29T01:40:35.391Z,89.86
2017-12-29T01:41:01.494Z,89.67
2017-12-29T01:41:27.600Z,89.96
2017-12-29T01:41:53.703Z,90.15
2017-12-29T01:42:19.870Z,90.24
2017-12-29T01:42:45.964Z,90.53
2017-12-29T01:43:12.103Z,90.24
2017-12-29T01:43:38.209Z,90.34
2017-12-29T01:44:04.332Z,90.81
2017-12-29T01:44:30.422Z,90.53
2017-12-29T01:44:56.546Z,90.43
2017-12-29T01:45:22.650Z,90.43
2017-12-29T01:45:48.752Z,90.62
2017-12-29T01:46:14.853Z,90.53
2017-12-29T01:46:40.956Z,90.81
2017-12-29T01:47:07.050Z,90.34
2017-12-29T01:47:33.155Z,90.53
2017-12-29T01:47:59.250Z,90.62
2017-12-29T01:48:25.349Z,90.05
2017-12-29T01:48:51.448Z,90.34
2017-12-29T01:49:17.553Z,90.24
2017-12-29T01:49:43.650Z,90.34
2017-12-29T01:50:09.758Z,90.05
2017-12-29T01:50:35.853Z,90.53
2017-12-29T01:51:01.952Z,90.53
2017-12-29T01:51:28.058Z,90.62
2017-12-29T01:51:54.155Z,91
2017-12-29T01:52:20.259Z,91.38
2017-12-29T01:52:46.358Z,91.38
2017-12-29T01:53:12.463Z,91.38
2017-12-29T01:53:38.557Z,91
2017-12-29T01:54:04.661Z,91.47
2017-12-29T01:54:30.761Z,91.47
2017-12-29T01:54:56.861Z,92.04
2017-12-29T01:55:22.963Z,91.47
2017-12-29T01:55:49.065Z,91.57
2017-12-29T01:56:15.186Z,91.57
2017-12-29T01:56:41.276Z,91.66
2017-12-29T01:57:07.380Z,91.47
2017-12-29T01:57:33.478Z,91.47
2017-12-29T01:57:59.575Z,91.09
2017-12-29T01:58:25.678Z,90.91
2017-12-29T01:58:51.768Z,91.19
2017-12-29T01:59:17.888Z,91.76
2017-12-29T01:59:43.993Z,91.66
2017-12-29T02:00:10.100Z,91.76
2017-12-29T02:00:36.204Z,91.76
2017-12-29T02:01:02.314Z,91.66
2017-12-29T02:01:28.412Z,91.66
2017-12-29T02:01:54.512Z,91.28
2017-12-29T02:02:20.612Z,91.47
2017-12-29T02:02:46.714Z,91.66
2017-12-29T02:03:12.823Z,91.19
2017-12-29T02:03:38.926Z,91.57
2017-12-29T02:04:05.031Z,92.04
2017-12-29T02:04:31.148Z,91.76
2017-12-29T02:04:57.252Z,91.76
2017-12-29T02:05:23.349Z,91.66
2017-12-29T02:05:49.450Z,91.57
2017-12-29T02:06:15.552Z,91.57
2017-12-29T02:06:41.648Z,91.57
2017-12-29T02:07:07.769Z,91.66
2017-12-29T02:07:33.863Z,91.85
2017-12-29T02:07:59.966Z,91.47
2017-12-29T02:08:26.067Z,92.04
2017-12-29T02:08:52.163Z,91.66
2017-12-29T02:09:18.267Z,91.76
2017-12-29T02:09:44.363Z,91.95
2017-12-29T02:10:10.462Z,92
2017-12-29T02:10:36.564Z,91.52
2017-12-29T02:11:02.659Z,91.57
2017-12-29T02:11:28.765Z,92.28
2017-12-29T02:11:54.861Z,92.09
2017-12-29T02:12:20.962Z,92.47
2017-12-29T02:12:47.060Z,92.38
2017-12-29T02:13:13.163Z,92.52
2017-12-29T02:13:39.264Z,92.42
2017-12-29T02:14:05.377Z,92.61
2017-12-29T02:14:31.482Z,92.38
2017-12-29T02:14:57.580Z,92.47
2017-12-29T02:15:23.676Z,92.28
2017-12-29T02:15:49.780Z,92.57
2017-12-29T02:16:15.875Z,92.57
2017-12-29T02:16:41.979Z,92.09
2017-12-29T02:17:08.077Z,92
2017-12-29T02:17:34.180Z,92.38
2017-12-29T02:18:00.276Z,92.09
2017-12-29T02:18:26.379Z,92.09
2017-12-29T02:18:52.481Z,92.09
2017-12-29T02:19:18.579Z,92.28
2017-12-29T02:19:44.684Z,92.19
2017-12-29T02:20:10.781Z,92
2017-12-29T02:20:36.879Z,92.04
2017-12-29T02:21:02.986Z,92.61
2017-12-29T02:21:29.082Z,92.19
2017-12-29T02:21:55.188Z,92.57
2017-12-29T02:22:21.288Z,92.09
2017-12-29T02:22:47.385Z,92.09
2017-12-29T02:23:13.481Z,92.28
2017-12-29T02:23:39.584Z,92.66
2017-12-29T02:24:05.685Z,92.57
2017-12-29T02:24:31.779Z,92.38
2017-12-29T02:24:57.898Z,92.47
2017-12-29T02:25:23.997Z,92.42
2017-12-29T02:25:50.097Z,92.52
2017-12-29T02:26:16.200Z,92.28
2017-12-29T02:26:42.296Z,92.23
2017-12-29T02:27:08.399Z,92.66
2017-12-29T02:27:34.498Z,92.28
2017-12-29T02:28:00.592Z,92.28
2017-12-29T02:28:26.701Z,92.66
2017-12-29T02:28:52.795Z,92.28
2017-12-29T02:29:18.894Z,92.19
2017-12-29T02:29:44.991Z,91.9
2017-12-29T02:30:11.095Z,92
2017-12-29T02:30:37.193Z,92.28
2017-12-29T02:31:03.294Z,92.38
2017-12-29T02:31:29.395Z,92.19
2017-12-29T02:31:55.494Z,92
2017-12-29T02:32:21.598Z,92.19
2017-12-29T02:32:47.702Z,92.47
2017-12-29T02:33:13.811Z,92.47
2017-12-29T02:33:39.913Z,92.19
2017-12-29T02:34:06.011Z,92.66
2017-12-29T02:34:32.110Z,92.19
2017-12-29T02:34:58.216Z,92.66
2017-12-29T02:35:24.316Z,92.38
2017-12-29T02:35:50.422Z,92.47
2017-12-29T02:36:16.524Z,92.71
2017-12-29T02:36:42.622Z,92.28
2017-12-29T02:37:08.714Z,92.66
2017-12-29T02:37:34.817Z,92.19
2017-12-29T02:38:00.912Z,91.9
2017-12-29T02:38:27.011Z,92.94
2017-12-29T02:38:53.128Z,92.76
2017-12-29T02:39:19.222Z,92.57
2017-12-29T02:39:45.320Z,92.76
2017-12-29T02:40:11.444Z,92.57
2017-12-29T02:40:37.542Z,92
2017-12-29T02:41:03.648Z,92.09
2017-12-29T02:41:29.748Z,92.76
2017-12-29T02:41:55.845Z,92.57
2017-12-29T02:42:21.944Z,92.66
2017-12-29T02:42:48.047Z,93.04
2017-12-29T02:43:14.149Z,92.66
2017-12-29T02:43:40.241Z,92.94
2017-12-29T02:44:06.363Z,93.13
2017-12-29T02:44:32.460Z,93.23
2017-12-29T02:44:58.561Z,92.57
2017-12-29T02:45:24.657Z,92.66
2017-12-29T02:45:50.755Z,93.13
2017-12-29T02:46:16.861Z,93.13
2017-12-29T02:46:42.956Z,93.13
2017-12-29T02:47:09.057Z,92.94
2017-12-29T02:47:35.158Z,92.94
2017-12-29T02:48:01.260Z,93.04
2017-12-29T02:48:27.365Z,92.94
2017-12-29T02:48:53.460Z,93.32
2017-12-29T02:49:19.559Z,93.23
2017-12-29T02:49:45.661Z,93.51
2017-12-29T02:50:11.762Z,93.42
2017-12-29T02:50:37.852Z,93.42
2017-12-29T02:51:03.950Z,93.23
2017-12-29T02:51:30.051Z,92.66
2017-12-29T02:51:56.146Z,92.94
2017-12-29T02:52:22.245Z,92.85
2017-12-29T02:52:48.351Z,92.66
2017-12-29T02:53:14.448Z,92.76
2017-12-29T02:53:40.547Z,92.94
2017-12-29T02:54:06.648Z,93.23
2017-12-29T02:54:32.748Z,92.94
2017-12-29T02:54:58.851Z,92.76
2017-12-29T02:55:24.959Z,92.94
2017-12-29T02:55:51.048Z,93.23
2017-12-29T02:56:17.151Z,92.57
2017-12-29T02:56:43.261Z,92.66
2017-12-29T02:57:09.369Z,92.47
2017-12-29T02:57:35.465Z,92.76
2017-12-29T02:58:01.566Z,93.04
2017-12-29T02:58:27.663Z,92.76
2017-12-29T02:58:53.768Z,92.38
2017-12-29T02:59:19.869Z,92.38
2017-12-29T02:59:45.966Z,92.57
2017-12-29T03:00:12.060Z,92.57
2017-12-29T03:00:38.182Z,92.57
2017-12-29T03:01:04.281Z,93.04
2017-12-29T03:01:30.382Z,92.76
2017-12-29T03:01:56.483Z,93.04
2017-12-29T03:02:22.579Z,92.94
2017-12-29T03:02:48.683Z,92.38
2017-12-29T03:03:14.784Z,92.47
2017-12-29T03:03:40.883Z,93.04
2017-12-29T03:04:06.999Z,92.76
2017-12-29T03:04:33.096Z,92.85
2017-12-29T03:04:59.196Z,93.13
2017-12-29T03:05:25.297Z,92.94
2017-12-29T03:05:51.403Z,93.04
2017-12-29T03:06:17.502Z,93.23
2017-12-29T03:06:43.602Z,93.23
2017-12-29T03:07:09.706Z,93.23
2017-12-29T03:07:35.822Z,93.51
2017-12-29T03:08:01.917Z,93.23
2017-12-29T03:08:28.015Z,93.51
2017-12-29T03:08:54.114Z,93.32
2017-12-29T03:09:20.238Z,93.42
2017-12-29T03:09:46.350Z,93.99
2017-12-29T03:10:12.449Z,93.7
2017-12-29T03:10:38.558Z,93.61
2017-12-29T03:11:04.650Z,94.08
2017-12-29T03:11:30.751Z,93.8
2017-12-29T03:11:56.846Z,93.99
2017-12-29T03:12:22.949Z,93.7
2017-12-29T03:12:49.062Z,93.61
2017-12-29T03:13:15.185Z,93.42
2017-12-29T03:13:41.284Z,93.13
2017-12-29T03:14:07.382Z,93.32
2017-12-29T03:14:33.483Z,93.13
2017-12-29T03:14:59.577Z,93.13
2017-12-29T03:15:25.681Z,93.13
2017-12-29T03:15:51.798Z,92.94
2017-12-29T03:16:17.902Z,93.32
2017-12-29T03:16:44.006Z,93.42
2017-12-29T03:17:10.106Z,93.42
2017-12-29T03:17:36.200Z,93.04
2017-12-29T03:18:02.301Z,93.13
2017-12-29T03:18:28.398Z,93.13
2017-12-29T03:18:54.498Z,93.04
2017-12-29T03:19:20.599Z,93.04
2017-12-29T03:19:46.729Z,93.04
2017-12-29T03:20:12.824Z,93.51
2017-12-29T03:20:38.929Z,93.51
2017-12-29T03:21:05.026Z,93.61
2017-12-29T03:21:31.142Z,93.51
2017-12-29T03:21:57.250Z,93.23
2017-12-29T03:22:23.341Z,93.51
2017-12-29T03:22:49.445Z,93.23
2017-12-29T03:23:15.541Z,93.13
2017-12-29T03:23:41.642Z,93.42
2017-12-29T03:24:07.742Z,93.42
2017-12-29T03:24:33.845Z,93.04
2017-12-29T03:24:59.957Z,93.23
2017-12-29T03:25:26.078Z,93.23
2017-12-29T03:25:52.176Z,93.04
2017-12-29T03:26:18.281Z,93.42
2017-12-29T03:26:44.380Z,93.42
2017-12-29T03:27:10.476Z,93.32
2017-12-29T03:27:36.594Z,93.7
2017-12-29T03:28:02.698Z,93.8
2017-12-29T03:28:28.799Z,93.7
2017-12-29T03:28:54.893Z,93.99
2017-12-29T03:29:20.999Z,94.18
2017-12-29T03:29:47.097Z,94.37
2017-12-29T03:30:13.199Z,94.65
2017-12-29T03:30:39.295Z,94.18
2017-12-29T03:31:05.409Z,94.46
2017-12-29T03:31:31.513Z,94.46
2017-12-29T03:31:57.608Z,94.37
2017-12-29T03:32:23.709Z,94.74
2017-12-29T03:32:49.805Z,94.84
2017-12-29T03:33:15.903Z,94.84
2017-12-29T03:33:42.008Z,94.74
2017-12-29T03:34:08.099Z,94.84
2017-12-29T03:34:34.197Z,94.65
2017-12-29T03:35:00.302Z,94.74
2017-12-29T03:35:26.396Z,94.56
2017-12-29T03:35:52.498Z,94.56
2017-12-29T03:36:18.588Z,94.37
2017-12-29T03:36:44.688Z,94.56
2017-12-29T03:37:10.788Z,94.46
2017-12-29T03:37:36.889Z,94.37
2017-12-29T03:38:02.993Z,94.37
2017-12-29T03:38:29.091Z,94.74
2017-12-29T03:38:55.192Z,94.37
2017-12-29T03:39:21.290Z,94.37
2017-12-29T03:39:47.395Z,94.46
2017-12-29T03:40:13.494Z,93.89
2017-12-29T03:40:39.593Z,94.08
2017-12-29T03:41:05.701Z,94.27
2017-12-29T03:41:31.803Z,93.99
2017-12-29T03:41:57.903Z,93.7
2017-12-29T03:42:24.004Z,93.32
2017-12-29T03:42:50.103Z,93.89
2017-12-29T03:43:16.200Z,93.99
2017-12-29T03:43:42.300Z,93.89
2017-12-29T03:44:08.404Z,94.18
2017-12-29T03:44:34.501Z,93.99
2017-12-29T03:45:00.602Z,93.99
2017-12-29T03:45:26.699Z,93.32
2017-12-29T03:45:52.799Z,93.8
2017-12-29T03:46:18.914Z,93.8
2017-12-29T03:46:45.015Z,93.89
2017-12-29T03:47:11.114Z,93.89
2017-12-29T03:47:37.210Z,93.7
2017-12-29T03:48:03.316Z,93.61
2017-12-29T03:48:29.430Z,93.7
2017-12-29T03:48:55.528Z,93.51
2017-12-29T03:49:21.638Z,93.42
2017-12-29T03:49:47.739Z,93.13
2017-12-29T03:50:13.839Z,93.04
2017-12-29T03:50:39.941Z,93.13
2017-12-29T03:51:06.040Z,93.61
2017-12-29T03:51:32.142Z,93.32
2017-12-29T03:51:58.244Z,93.61
2017-12-29T03:52:24.359Z,93.61
2017-12-29T03:52:50.462Z,93.61
2017-12-29T03:53:16.556Z,94.18
2017-12-29T03:53:42.654Z,93.7
2017-12-29T03:54:08.774Z,93.99
2017-12-29T03:54:34.876Z,93.8
2017-12-29T03:55:00.973Z,93.42
2017-12-29T03:55:27.072Z,93.7
2017-12-29T03:55:53.173Z,93.61
2017-12-29T03:56:19.274Z,93.89
2017-12-29T03:56:45.375Z,94.37
2017-12-29T03:57:11.472Z,94.08
2017-12-29T03:57:37.576Z,93.89
2017-12-29T03:58:03.679Z,94.27
2017-12-29T03:58:29.785Z,93.99
2017-12-29T03:58:55.886Z,93.42
2017-12-29T03:59:21.984Z,93.51
2017-12-29T03:59:48.099Z,93.8
2017-12-29T04:00:14.199Z,93.7
2017-12-29T04:00:40.302Z,93.8
2017-12-29T04:01:06.405Z,93.7
2017-12-29T04:01:32.498Z,94.08
2017-12-29T04:01:58.604Z,93.89
2017-12-29T04:02:24.701Z,93.8
2017-12-29T04:02:50.799Z,93.99
2017-12-29T04:03:16.893Z,93.89
2017-12-29T04:03:42.993Z,93.8
2017-12-29T04:04:09.101Z,93.8
2017-12-29T04:04:35.201Z,93.7
2017-12-29T04:05:01.300Z,94.27
2017-12-29T04:05:27.398Z,93.99
2017-12-29T04:05:53.514Z,94.51
2017-12-29T04:06:19.616Z,94.46
2017-12-29T04:06:45.715Z,94.46
2017-12-29T04:07:11.815Z,94.46
2017-12-29T04:07:37.961Z,94.37
2017-12-29T04:08:04.012Z,94.46
2017-12-29T04:08:30.114Z,94.42
2017-12-29T04:08:56.207Z,94.74
2017-12-29T04:09:22.306Z,94.84
2017-12-29T04:09:48.409Z,94.42
2017-12-29T04:10:14.521Z,94.6
2017-12-29T04:10:40.624Z,94.6
2017-12-29T04:11:06.720Z,94.79
2017-12-29T04:11:32.821Z,94.89
2017-12-29T04:11:58.926Z,94.89
2017-12-29T04:12:25.021Z,95.07
2017-12-29T04:12:51.119Z,94.98
2017-12-29T04:13:17.225Z,95.07
2017-12-29T04:13:43.343Z,94.98
2017-12-29T04:14:09.439Z,95.07
2017-12-29T04:14:35.536Z,94.98
2017-12-29T04:15:01.638Z,95.17
2017-12-29T04:15:27.740Z,95.5
2017-12-29T04:15:53.834Z,94.89
2017-12-29T04:16:19.930Z,94.6
2017-12-29T04:16:46.037Z,94.56
2017-12-29T04:17:12.140Z,94.84
2017-12-29T04:17:38.235Z,94.74
2017-12-29T04:18:04.338Z,94.56
2017-12-29T04:18:30.432Z,94.74
2017-12-29T04:18:56.534Z,94.74
2017-12-29T04:19:22.628Z,94.65
2017-12-29T04:19:48.725Z,94.56
2017-12-29T04:20:14.829Z,94.74
2017-12-29T04:20:40.925Z,94.37
2017-12-29T04:21:07.022Z,94.56
2017-12-29T04:21:33.126Z,94.46
2017-12-29T04:21:59.215Z,94.56
2017-12-29T04:22:25.319Z,94.56
2017-12-29T04:22:51.417Z,94.46
2017-12-29T04:23:17.519Z,94.18
2017-12-29T04:23:43.622Z,94.37
2017-12-29T04:24:09.726Z,94.08
2017-12-29T04:24:35.824Z,93.8
2017-12-29T04:25:01.925Z,93.94
2017-12-29T04:25:28.021Z,94.32
2017-12-29T04:25:54.138Z,94.32
2017-12-29T04:26:20.240Z,94.42
2017-12-29T04:26:46.339Z,94.79
2017-12-29T04:27:12.442Z,94.89
2017-12-29T04:27:38.540Z,94.6
2017-12-29T04:28:04.635Z,94.89
2017-12-29T04:28:30.732Z,94.98
2017-12-29T04:28:56.838Z,94.89
2017-12-29T04:29:22.937Z,94.84
2017-12-29T04:29:49.043Z,94.84
2017-12-29T04:30:15.145Z,94.7
2017-12-29T04:30:41.240Z,94.6
2017-12-29T04:31:07.347Z,94.7
2017-12-29T04:31:33.460Z,94.65
2017-12-29T04:31:59.559Z,94.7
2017-12-29T04:32:25.662Z,94.7
2017-12-29T04:32:51.756Z,94.79
2017-12-29T04:33:17.861Z,94.56
2017-12-29T04:33:43.954Z,94.7
2017-12-29T04:34:10.061Z,95.45
2017-12-29T04:34:36.156Z,95.26
2017-12-29T04:35:02.260Z,95.17
2017-12-29T04:35:28.354Z,95.26
2017-12-29T04:35:54.457Z,95.03
2017-12-29T04:36:20.561Z,94.6
2017-12-29T04:36:46.674Z,94.79
2017-12-29T04:37:12.775Z,94.7
2017-12-29T04:37:38.877Z,94.93
2017-12-29T04:38:04.974Z,94.89
2017-12-29T04:38:31.074Z,94.6
2017-12-29T04:38:57.170Z,94.79
2017-12-29T04:39:23.277Z,94.65
2017-12-29T04:39:49.378Z,94.6
2017-12-29T04:40:15.470Z,94.6
2017-12-29T04:40:41.569Z,94.7
2017-12-29T04:41:07.672Z,94.6
2017-12-29T04:41:33.769Z,94.7
2017-12-29T04:41:59.877Z,94.7
2017-12-29T04:42:25.977Z,94.51
2017-12-29T04:42:52.077Z,94.74
2017-12-29T04:43:18.175Z,94.42
2017-12-29T04:43:44.271Z,94.42
2017-12-29T04:44:10.379Z,94.56
2017-12-29T04:44:36.475Z,94.42
2017-12-29T04:45:02.574Z,94.32
2017-12-29T04:45:28.676Z,94.51
2017-12-29T04:45:54.778Z,94.42
2017-12-29T04:46:20.871Z,94.51
2017-12-29T04:46:46.968Z,94.79
2017-12-29T04:47:13.070Z,94.6
2017-12-29T04:47:39.171Z,95.07
2017-12-29T04:48:05.281Z,94.89
2017-12-29T04:48:31.378Z,94.89
2017-12-29T04:48:57.475Z,94.79
2017-12-29T04:49:23.581Z,95.07
2017-12-29T04:49:49.681Z,95.07
2017-12-29T04:50:15.776Z,95.07
2017-12-29T04:50:41.875Z,95.07
2017-12-29T04:51:07.970Z,95.07
2017-12-29T04:51:34.089Z,95.07
2017-12-29T04:52:00.184Z,95.07
2017-12-29T04:52:26.278Z,95.17
2017-12-29T04:52:52.381Z,95.07
2017-12-29T04:53:18.477Z,95.26
2017-12-29T04:53:44.579Z,95.26
2017-12-29T04:54:10.690Z,95.07
2017-12-29T04:54:36.790Z,95.17
2017-12-29T04:55:02.897Z,95.26
2017-12-29T04:55:28.995Z,94.79
2017-12-29T04:55:55.097Z,95.45
2017-12-29T04:56:21.200Z,94.79
2017-12-29T04:56:47.297Z,94.79
2017-12-29T04:57:13.415Z,94.79
2017-12-29T04:57:39.510Z,95.07
2017-12-29T04:58:05.610Z,95.55
2017-12-29T04:58:31.714Z,95.17
2017-12-29T04:58:57.814Z,95.07
2017-12-29T04:59:23.932Z,94.98
2017-12-29T04:59:50.027Z,94.89
2017-12-29T05:00:16.136Z,95.17
2017-12-29T05:00:42.229Z,95.12
2017-12-29T05:01:08.323Z,95.45
2017-12-29T05:01:34.426Z,94.89
2017-12-29T05:02:00.523Z,94.98
2017-12-29T05:02:26.626Z,95.17
2017-12-29T05:02:52.739Z,95.07
2017-12-29T05:03:18.839Z,95.07
2017-12-29T05:03:44.937Z,95.17
2017-12-29T05:04:11.037Z,95.07
2017-12-29T05:04:37.135Z,95.26
2017-12-29T05:05:03.237Z,95.26
2017-12-29T05:05:29.338Z,95.26
2017-12-29T05:05:55.437Z,95.26
2017-12-29T05:06:21.529Z,94.98
2017-12-29T05:06:47.632Z,95.26
2017-12-29T05:07:13.733Z,95.07
2017-12-29T05:07:39.831Z,95.07
2017-12-29T05:08:05.932Z,95.07
2017-12-29T05:08:32.027Z,94.89
2017-12-29T05:08:58.133Z,95.07
2017-12-29T05:09:24.237Z,95.64
2017-12-29T05:09:50.324Z,94.98
2017-12-29T05:10:16.477Z,95.17
2017-12-29T05:10:42.528Z,95.64
2017-12-29T05:11:08.625Z,95.17
2017-12-29T05:11:34.722Z,95.17
2017-12-29T05:12:00.817Z,94.98
2017-12-29T05:12:26.921Z,94.98
2017-12-29T05:12:53.022Z,94.79
2017-12-29T05:13:19.123Z,94.89
2017-12-29T05:13:45.220Z,95.07
2017-12-29T05:14:11.323Z,95.74
2017-12-29T05:14:37.420Z,95.55
2017-12-29T05:15:03.525Z,94.7
2017-12-29T05:15:29.620Z,95.45
2017-12-29T05:15:55.714Z,95.55
2017-12-29T05:16:21.814Z,94.79
2017-12-29T05:16:47.918Z,95.12
2017-12-29T05:17:14.019Z,95.45
2017-12-29T05:17:40.120Z,94.51
2017-12-29T05:18:06.225Z,94.51
2017-12-29T05:18:32.316Z,94.42
2017-12-29T05:18:58.424Z,94.7
2017-12-29T05:19:24.520Z,94.89
2017-12-29T05:19:50.639Z,95.26
2017-12-29T05:20:16.732Z,95.17
2017-12-29T05:20:42.849Z,95.26
2017-12-29T05:21:08.962Z,95.45
2017-12-29T05:21:35.055Z,95.45
2017-12-29T05:22:01.158Z,95.45
2017-12-29T05:22:27.254Z,95.07
2017-12-29T05:22:53.353Z,94.89
2017-12-29T05:23:19.474Z,95.07
2017-12-29T05:23:45.573Z,95.17
2017-12-29T05:24:11.691Z,95.07
2017-12-29T05:24:37.788Z,94.89
2017-12-29T05:25:03.891Z,94.79
2017-12-29T05:25:29.984Z,94.6
2017-12-29T05:25:56.084Z,94.6
2017-12-29T05:26:22.186Z,94.65
2017-12-29T05:26:48.287Z,94.65
2017-12-29T05:27:14.382Z,94.7
2017-12-29T05:27:40.485Z,94.79
2017-12-29T05:28:06.583Z,95.55
2017-12-29T05:28:32.678Z,95.07
2017-12-29T05:28:58.801Z,95.07
2017-12-29T05:29:24.901Z,94.79
2017-12-29T05:29:50.995Z,95.07
2017-12-29T05:30:17.095Z,95.07
2017-12-29T05:30:43.196Z,95.07
2017-12-29T05:31:09.292Z,95.07
2017-12-29T05:31:35.396Z,95.55
2017-12-29T05:32:01.490Z,95.64
2017-12-29T05:32:27.594Z,95.83
2017-12-29T05:32:53.694Z,95.93
2017-12-29T05:33:19.790Z,95.93
2017-12-29T05:33:45.894Z,95.93
2017-12-29T05:34:11.994Z,95.74
2017-12-29T05:34:38.116Z,95.93
2017-12-29T05:35:04.211Z,95.64
2017-12-29T05:35:30.303Z,95.83
2017-12-29T05:35:56.407Z,95.93
2017-12-29T05:36:22.509Z,95.83
2017-12-29T05:36:48.604Z,95.93
2017-12-29T05:37:14.706Z,95.93